createdAt,value
2019-04-26T00:01:27.087Z,13.83
2019-04-26T00:06:28.905Z,14.50
2019-04-26T00:11:32.494Z,15.70
2019-04-26T00:16:46.314Z,14.80
2019-04-26T00:21:47.799Z,18.67
2019-04-26T00:26:49.630Z,13.87
2019-04-26T00:31:51.410Z,15.40
2019-04-26T00:36:53.052Z,13.27
2019-04-26T00:41:54.595Z,17.27
2019-04-26T00:46:57.754Z,11.67
2019-04-26T00:51:59.628Z,20.23
2019-04-26T00:57:01.800Z,19.07
2019-04-26T01:02:08.682Z,25.47
2019-04-26T01:07:10.320Z,17.67
2019-04-26T01:12:12.233Z,18.47
2019-04-26T01:17:13.900Z,18.13
2019-04-26T01:22:23.329Z,15.13
2019-04-26T01:27:27.708Z,21.10
2019-04-26T01:32:30.094Z,16.40
2019-04-26T01:37:31.726Z,26.30
2019-04-26T01:42:44.318Z,19.17
2019-04-26T01:47:47.741Z,14.80
2019-04-26T01:52:49.458Z,13.87
2019-04-26T01:57:51.300Z,15.70
2019-04-26T02:02:57.751Z,23.67
2019-04-26T02:07:59.314Z,15.27
2019-04-26T02:13:01.785Z,13.67
2019-04-26T02:18:03.956Z,16.63
2019-04-26T02:23:07.334Z,17.53
2019-04-26T02:28:09.492Z,14.90
2019-04-26T02:33:11.326Z,13.57
2019-04-26T02:38:12.878Z,13.27
2019-04-26T02:43:15.866Z,17.10
2019-04-26T02:48:37.941Z,17.40
2019-04-26T02:53:58.230Z,13.67
2019-04-26T02:59:03.336Z,14.60
2019-04-26T03:04:04.958Z,12.10
2019-04-26T03:09:07.206Z,16.73
2019-04-26T03:14:12.017Z,12.87
2019-04-26T03:19:39.609Z,14.30
2019-04-26T03:25:16.875Z,16.10
2019-04-26T03:30:24.711Z,14.80
2019-04-26T03:35:54.475Z,14.13
2019-04-26T03:41:05.490Z,15.80
2019-04-26T03:46:30.318Z,12.63
2019-04-26T03:51:54.407Z,15.17
2019-04-26T03:57:17.017Z,12.60
2019-04-26T04:02:30.496Z,18.23
2019-04-26T04:07:39.538Z,15.60
2019-04-26T04:12:49.903Z,16.20
2019-04-26T04:18:03.070Z,17.43
2019-04-26T04:23:08.996Z,16.27
2019-04-26T04:28:39.838Z,16.07
2019-04-26T04:34:02.519Z,16.33
2019-04-26T04:39:13.089Z,15.40
2019-04-26T04:44:28.451Z,15.20
2019-04-26T04:49:48.975Z,17.10
2019-04-26T04:55:08.147Z,13.27
2019-04-26T05:00:38.249Z,14.10
2019-04-26T05:06:09.393Z,13.97
2019-04-26T05:11:37.949Z,19.37
2019-04-26T05:17:10.180Z,17.27
2019-04-26T05:22:38.841Z,12.23
2019-04-26T05:27:55.218Z,13.03
2019-04-26T05:33:00.841Z,16.50
2019-04-26T05:38:25.982Z,17.27
2019-04-26T05:43:54.421Z,18.93
2019-04-26T05:49:36.980Z,16.90
2019-04-26T05:55:07.260Z,16.50
2019-04-26T06:00:32.925Z,17.70
2019-04-26T06:05:58.574Z,25.13
2019-04-26T06:11:04.962Z,19.80
2019-04-26T06:16:35.455Z,24.27
2019-04-26T06:21:53.717Z,19.07
2019-04-26T06:27:20.032Z,17.73
2019-04-26T06:32:28.193Z,21.53
2019-04-26T06:37:55.358Z,19.07
2019-04-26T06:43:10.219Z,23.20
2019-04-26T06:48:29.893Z,21.60
2019-04-26T06:53:38.701Z,26.27
2019-04-26T06:59:17.265Z,28.93
2019-04-26T07:04:45.253Z,23.80
2019-04-26T07:10:00.140Z,28.80
2019-04-26T07:15:28.453Z,24.70
2019-04-26T07:20:35.235Z,23.60
2019-04-26T07:26:14.430Z,20.90
2019-04-26T07:31:54.903Z,21.03
2019-04-26T07:37:20.030Z,18.30
2019-04-26T07:42:43.996Z,19.50
2019-04-26T07:48:14.635Z,21.63
2019-04-26T07:53:35.493Z,22.80
2019-04-26T07:59:07.297Z,34.40
2019-04-26T08:04:14.735Z,33.00
2019-04-26T08:09:27.018Z,28.83
2019-04-26T08:14:45.127Z,16.17
2019-04-26T08:19:53.555Z,21.07
2019-04-26T08:24:58.055Z,18.47
2019-04-26T08:30:03.336Z,19.57
2019-04-26T08:35:16.869Z,30.90
2019-04-26T08:40:23.299Z,19.37
2019-04-26T08:45:32.312Z,25.60
2019-04-26T08:50:36.373Z,29.97
2019-04-26T08:55:38.346Z,26.53
2019-04-26T09:00:52.736Z,20.43
2019-04-26T09:05:57.498Z,50.50
2019-04-26T09:11:00.938Z,58.30
2019-04-26T09:16:08.783Z,59.97
2019-04-26T09:21:13.431Z,58.47
2019-04-26T09:26:35.198Z,52.83
2019-04-26T09:31:39.568Z,35.30
2019-04-26T09:36:43.298Z,48.30
2019-04-26T09:41:49.972Z,51.50
2019-04-26T09:52:31.440Z,49.13
2019-04-26T09:57:53.481Z,55.03
2019-04-26T10:02:58.948Z,49.30
2019-04-26T10:08:08.395Z,42.80
2019-04-26T10:13:23.993Z,55.77
2019-04-26T10:18:28.657Z,63.07
2019-04-26T10:23:34.628Z,66.00
2019-04-26T10:28:40.471Z,61.60
2019-04-26T10:33:46.475Z,50.00
2019-04-26T10:38:54.462Z,44.00
2019-04-26T10:43:58.777Z,35.10
2019-04-26T10:49:09.093Z,32.97
2019-04-26T10:54:10.127Z,29.97
2019-04-26T10:59:16.767Z,27.00
2019-04-26T11:04:19.425Z,27.93
2019-04-26T11:09:22.397Z,21.77
2019-04-26T11:14:42.549Z,25.23
2019-04-26T11:19:46.711Z,24.93
2019-04-26T11:24:50.151Z,26.40
2019-04-26T11:29:54.281Z,25.30
2019-04-26T11:34:58.809Z,23.80
2019-04-26T11:40:00.371Z,29.03
2019-04-26T11:45:14.195Z,28.67
2019-04-26T11:50:16.315Z,27.37
2019-04-26T11:55:20.532Z,30.43
2019-04-26T12:00:27.443Z,29.20
2019-04-26T12:05:35.198Z,27.40
2019-04-26T12:10:40.508Z,25.13
2019-04-26T12:15:43.806Z,22.70
2019-04-26T12:20:44.140Z,22.87
2019-04-26T12:25:48.098Z,22.00
2019-04-26T12:30:49.557Z,22.57
2019-04-26T12:35:56.947Z,23.53
2019-04-26T12:40:56.834Z,22.00
2019-04-26T12:46:00.402Z,20.10
2019-04-26T12:51:02.089Z,20.97
2019-04-26T12:56:03.728Z,21.93
2019-04-26T13:01:07.962Z,21.80
2019-04-26T13:06:15.424Z,19.73
2019-04-26T13:11:24.966Z,17.50
2019-04-26T13:16:28.435Z,18.97
2019-04-26T13:21:33.191Z,17.17
2019-04-26T13:26:37.313Z,17.43
2019-04-26T13:31:40.855Z,12.53
2019-04-26T13:36:43.989Z,12.30
2019-04-26T13:41:46.429Z,10.53
2019-04-26T13:46:58.738Z,10.77
2019-04-26T13:52:03.008Z,8.33
2019-04-26T13:57:06.215Z,6.50
2019-04-26T14:02:11.759Z,5.57
2019-04-26T14:07:11.792Z,3.80
2019-04-26T14:12:18.750Z,4.40
2019-04-26T14:17:26.042Z,3.90
2019-04-26T14:22:31.263Z,4.23
2019-04-26T14:27:34.908Z,2.63
2019-04-26T14:32:36.473Z,2.63
2019-04-26T14:37:37.970Z,2.43
2019-04-26T14:42:46.997Z,3.00
2019-04-26T14:48:00.063Z,4.70
2019-04-26T14:53:02.462Z,5.37
2019-04-26T14:58:06.202Z,5.97
2019-04-26T15:03:12.334Z,9.07
2019-04-26T15:08:13.987Z,9.40
2019-04-26T15:13:20.747Z,10.13
2019-04-26T15:18:25.493Z,9.50
2019-04-26T15:23:30.631Z,10.40
2019-04-26T15:28:33.154Z,11.20
2019-04-26T15:33:36.034Z,10.80
2019-04-26T15:38:41.691Z,11.10
2019-04-26T15:43:50.283Z,11.93
2019-04-26T15:48:55.621Z,11.60
2019-04-26T15:53:57.278Z,12.60
2019-04-26T15:58:58.709Z,15.03
2019-04-26T16:04:04.390Z,16.40
2019-04-26T16:09:07.220Z,18.33
2019-04-26T16:14:08.744Z,23.20
2019-04-26T16:19:13.004Z,28.83
2019-04-26T16:24:14.841Z,26.00
2019-04-26T16:29:19.713Z,24.00
2019-04-26T16:34:26.786Z,26.03
2019-04-26T16:39:32.834Z,24.07
2019-04-26T16:44:33.529Z,25.90
2019-04-26T16:49:41.888Z,28.50
2019-04-26T16:54:39.129Z,27.90
2019-04-26T16:59:49.004Z,30.77
2019-04-26T17:04:44.826Z,29.97
2019-04-26T17:10:03.141Z,30.40
2019-04-26T17:14:52.539Z,29.93
2019-04-26T17:20:17.796Z,28.63
2019-04-26T17:25:32.133Z,28.10
2019-04-26T17:30:40.992Z,26.70
2019-04-26T17:35:40.936Z,28.03
2019-04-26T17:40:42.545Z,27.53
2019-04-26T17:45:44.341Z,26.37
2019-04-26T17:50:45.923Z,28.83
2019-04-26T17:55:52.894Z,29.37
2019-04-26T18:00:51.519Z,27.13
2019-04-26T18:05:57.030Z,31.43
2019-04-26T18:10:57.587Z,29.90
2019-04-26T18:15:59.140Z,28.93
2019-04-26T18:21:19.165Z,28.80
2019-04-26T18:26:21.533Z,27.20
2019-04-26T18:31:28.948Z,28.07
2019-04-26T18:36:31.397Z,33.57
2019-04-26T18:41:30.767Z,36.07
2019-04-26T18:46:40.048Z,40.50
2019-04-26T18:51:48.026Z,42.73
2019-04-26T18:56:47.957Z,38.20
2019-04-26T19:01:49.689Z,30.20
2019-04-26T19:06:53.713Z,22.10
2019-04-26T19:11:56.206Z,17.07
2019-04-26T19:17:05.811Z,16.33
2019-04-26T19:22:15.924Z,15.97
2019-04-26T19:27:14.146Z,15.17
2019-04-26T19:32:15.792Z,16.60
2019-04-26T19:37:17.371Z,18.83
2019-04-26T19:42:18.963Z,18.50
2019-04-26T19:47:39.468Z,21.23
2019-04-26T19:52:47.294Z,18.00
2019-04-26T19:58:09.707Z,18.03
2019-04-26T20:03:13.451Z,20.93
2019-04-26T20:08:16.374Z,18.53
2019-04-26T20:13:17.932Z,21.77
2019-04-26T20:18:21.354Z,21.83
2019-04-26T20:23:24.082Z,24.97
2019-04-26T20:28:25.664Z,22.73
2019-04-26T20:33:31.276Z,23.70
2019-04-26T20:38:35.749Z,24.20
2019-04-26T20:43:36.268Z,24.17
2019-04-26T20:48:39.490Z,26.40
2019-04-26T20:53:43.562Z,29.90
2019-04-26T20:58:47.110Z,27.40
2019-04-26T21:03:48.674Z,37.90
2019-04-26T21:08:54.030Z,37.40
2019-04-26T21:14:03.361Z,40.50
2019-04-26T21:19:02.820Z,38.10
2019-04-26T21:24:05.754Z,44.23
2019-04-26T21:29:13.435Z,44.57
2019-04-26T21:34:24.624Z,66.27
2019-04-26T21:39:47.585Z,42.67
2019-04-26T21:44:52.437Z,41.10
2019-04-26T21:49:58.673Z,39.83
2019-04-26T21:54:56.487Z,47.20
2019-04-26T21:59:58.107Z,49.67
2019-04-26T22:04:59.751Z,53.27
2019-04-26T22:10:09.399Z,49.57
2019-04-26T22:15:29.518Z,52.97
2019-04-26T22:20:44.816Z,51.30
2019-04-26T22:25:47.852Z,57.47
2019-04-26T22:30:49.694Z,52.90
2019-04-26T22:35:55.298Z,52.43
2019-04-26T22:40:56.283Z,50.10
2019-04-26T22:45:59.851Z,56.73
2019-04-26T22:51:04.451Z,57.03
2019-04-26T22:56:05.452Z,61.43
2019-04-26T23:01:07.334Z,56.03
2019-04-26T23:06:11.663Z,67.57
2019-04-26T23:11:13.484Z,50.60
2019-04-26T23:16:20.047Z,42.93
2019-04-26T23:21:29.236Z,25.83
2019-04-26T23:26:30.857Z,22.90
2019-04-26T23:31:33.482Z,69.53
2019-04-26T23:36:35.603Z,56.87
2019-04-26T23:41:37.561Z,73.83
2019-04-26T23:46:40.660Z,34.17
2019-04-26T23:51:45.742Z,54.20
2019-04-26T23:56:46.451Z,60.23
